Time;durP1;ratioP1;P1;durP2;ratioP2;P2;SDS_P1;SDS_P2;PMS_P1;PMS_P2;Temp;Humidity;BMP_temperature;BMP_pressure;BME280_temperature;BME280_humidity;BME280_pressure;Samples;Min_cycle;Max_cycle;Signal;HPM_P1;HPM_P2
2022/07/06 00:01:46;;;;;;;2.58;1.20;;;20.30;79.80;;;;;;5002952;28;20026;-81
2022/07/06 00:04:12;;;;;;;2.20;1.30;;;20.30;79.70;;;;;;5032912;28;20025;-82
2022/07/06 00:06:38;;;;;;;1.77;0.95;;;20.30;79.30;;;;;;5015170;28;20084;-81
2022/07/06 00:09:05;;;;;;;3.92;1.33;;;20.30;79.00;;;;;;5007532;28;20026;-81
2022/07/06 00:11:30;;;;;;;2.25;1.13;;;20.30;78.90;;;;;;5010947;28;20492;-82
2022/07/06 00:13:56;;;;;;;3.15;1.58;;;20.30;78.90;;;;;;5019061;28;20069;-82
2022/07/06 00:16:23;;;;;;;3.92;1.25;;;20.30;79.60;;;;;;5035954;28;20064;-82
2022/07/06 00:18:48;;;;;;;4.82;1.00;;;20.30;79.80;;;;;;5010337;28;20034;-82
2022/07/06 00:21:14;;;;;;;2.08;1.02;;;20.40;80.00;;;;;;4999997;28;20576;-81
2022/07/06 00:23:39;;;;;;;2.47;1.10;;;20.40;80.50;;;;;;4997451;28;20036;-82
2022/07/06 00:26:05;;;;;;;2.47;1.17;;;20.40;80.70;;;;;;5010932;28;20037;-80
2022/07/06 00:28:31;;;;;;;1.98;1.20;;;20.40;80.60;;;;;;5027822;28;20018;-82
2022/07/06 00:30:56;;;;;;;3.97;1.48;;;20.50;80.60;;;;;;5029289;28;20026;-81
2022/07/06 00:33:22;;;;;;;2.20;1.10;;;20.40;80.40;;;;;;5006983;28;20036;-82
2022/07/06 00:35:48;;;;;;;3.25;1.40;;;20.40;80.30;;;;;;5008813;28;20034;-82
2022/07/06 00:38:14;;;;;;;3.00;1.20;;;20.40;80.30;;;;;;5006337;28;20083;-81
2022/07/06 00:40:39;;;;;;;3.75;1.50;;;20.40;80.20;;;;;;5014032;28;20021;-82
2022/07/06 00:43:05;;;;;;;2.72;1.40;;;20.40;80.10;;;;;;5016038;28;20034;-82
2022/07/06 00:45:31;;;;;;;3.10;1.27;;;20.30;80.00;;;;;;5016752;28;20448;-82
2022/07/06 00:47:56;;;;;;;2.30;1.17;;;20.30;80.00;;;;;;4997499;28;20054;-82
2022/07/06 00:50:22;;;;;;;3.60;1.10;;;20.30;79.90;;;;;;5013894;28;20113;-82
2022/07/06 00:52:54;;;;;;;3.22;1.20;;;20.30;79.60;;;;;;5012392;28;20030;-82
2022/07/06 00:55:26;;;;;;;2.38;1.13;;;20.30;79.20;;;;;;5010869;28;20477;-82
2022/07/06 00:57:52;;;;;;;4.15;1.52;;;20.30;79.10;;;;;;4999108;28;20033;-82
2022/07/06 01:00:20;;;;;;;1.85;1.00;;;20.30;78.60;;;;;;5033732;28;20029;-82
2022/07/06 01:02:46;;;;;;;2.75;1.15;;;20.30;78.40;;;;;;5014800;28;20028;-82
2022/07/06 01:05:13;;;;;;;3.25;1.30;;;20.30;78.40;;;;;;5014506;28;20022;-81
2022/07/06 01:07:41;;;;;;;2.80;1.25;;;20.30;78.30;;;;;;5014445;28;20093;-81
2022/07/06 01:10:09;;;;;;;3.20;1.20;;;20.30;78.90;;;;;;5014189;28;20096;-82
2022/07/06 01:12:36;;;;;;;4.22;1.48;;;20.30;79.30;;;;;;5003719;28;20033;-81
2022/07/06 01:15:04;;;;;;;3.47;1.17;;;20.30;79.60;;;;;;5032417;28;20063;-81
2022/07/06 01:17:30;;;;;;;2.95;1.25;;;20.30;79.90;;;;;;5013707;28;20148;-82
2022/07/06 01:19:56;;;;;;;3.33;1.42;;;20.40;80.00;;;;;;4996082;28;20404;-81
2022/07/06 01:22:21;;;;;;;3.35;1.20;;;20.40;79.90;;;;;;4993554;28;20120;-81
2022/07/06 01:24:47;;;;;;;2.20;1.33;;;20.40;79.80;;;;;;4994003;28;20030;-82
2022/07/06 01:27:12;;;;;;;2.97;1.42;;;20.40;79.80;;;;;;5004487;28;20370;-82
2022/07/06 01:29:38;;;;;;;2.10;1.33;;;20.40;79.80;;;;;;5022963;28;20029;-82
2022/07/06 01:32:04;;;;;;;2.05;1.30;;;20.30;79.60;;;;;;5030962;28;20100;-82
2022/07/06 01:34:29;;;;;;;3.67;1.30;;;20.30;79.60;;;;;;5013462;28;20078;-81
2022/07/06 01:36:55;;;;;;;2.60;1.30;;;20.30;79.60;;;;;;5003423;28;20037;-81
2022/07/06 01:39:20;;;;;;;2.83;1.45;;;20.30;79.50;;;;;;5006866;28;20021;-81
2022/07/06 01:45:09;;;;;;;2.58;1.20;;;20.20;79.20;;;;;;5031636;28;20507;-80
2022/07/06 01:47:34;;;;;;;2.55;1.30;;;20.20;78.70;;;;;;5045000;28;20063;-82
2022/07/06 01:50:02;;;;;;;3.00;1.45;;;20.20;78.50;;;;;;5032637;28;20028;-82
2022/07/06 01:52:28;;;;;;;2.50;1.30;;;20.20;78.00;;;;;;5031984;28;20488;-81
2022/07/06 01:54:56;;;;;;;3.95;1.38;;;20.20;78.00;;;;;;5000581;28;20096;-82
2022/07/06 01:57:21;;;;;;;3.25;1.40;;;20.20;77.90;;;;;;5018823;28;20079;-81
2022/07/06 01:59:47;;;;;;;4.25;1.20;;;20.20;78.60;;;;;;5004168;28;20034;-81
2022/07/06 02:02:13;;;;;;;3.33;1.25;;;20.20;79.20;;;;;;5030392;28;20036;-82
2022/07/06 02:04:38;;;;;;;2.38;1.13;;;20.20;78.80;;;;;;5012946;28;20075;-81
2022/07/06 02:07:04;;;;;;;2.20;1.40;;;20.30;79.20;;;;;;5025688;28;20029;-82
2022/07/06 02:09:29;;;;;;;3.17;1.48;;;20.30;79.40;;;;;;5017631;28;20026;-81
2022/07/06 02:11:55;;;;;;;3.05;1.40;;;20.30;79.30;;;;;;4992454;28;20095;-82
2022/07/06 02:14:21;;;;;;;3.10;1.30;;;20.30;79.30;;;;;;4992640;28;20041;-82
2022/07/06 02:16:46;;;;;;;2.28;1.20;;;20.30;79.30;;;;;;5010197;28;20037;-82
2022/07/06 02:19:12;;;;;;;3.55;1.55;;;20.30;79.20;;;;;;4992604;28;20021;-81
2022/07/06 02:21:37;;;;;;;4.13;1.33;;;20.30;79.20;;;;;;5011635;28;20389;-81
2022/07/06 02:24:03;;;;;;;2.50;1.40;;;20.30;79.20;;;;;;5005362;28;20026;-81
2022/07/06 02:26:28;;;;;;;3.90;1.63;;;20.30;79.20;;;;;;4991464;28;20105;-82
2022/07/06 02:28:54;;;;;;;2.38;1.25;;;20.20;79.10;;;;;;5006433;28;20033;-82
2022/07/06 02:31:19;;;;;;;3.30;1.50;;;20.20;79.10;;;;;;5027509;28;20037;-81
2022/07/06 02:33:45;;;;;;;2.35;1.45;;;20.20;79.00;;;;;;5027519;28;20053;-82
2022/07/06 02:36:10;;;;;;;3.78;1.40;;;20.20;78.90;;;;;;5033340;28;20113;-83
2022/07/06 02:38:36;;;;;;;2.55;1.35;;;20.20;78.70;;;;;;5026097;28;20472;-83
2022/07/06 02:41:01;;;;;;;4.00;1.33;;;20.20;78.30;;;;;;5014808;28;20014;-82
2022/07/06 02:43:27;;;;;;;2.53;1.20;;;20.20;78.00;;;;;;5010538;28;20022;-82
2022/07/06 02:45:52;;;;;;;3.08;1.10;;;20.20;78.10;;;;;;5014142;28;20871;-81
2022/07/06 02:48:21;;;;;;;3.45;1.30;;;20.20;77.80;;;;;;5025651;28;20022;-82
2022/07/06 02:50:46;;;;;;;2.28;1.10;;;20.20;77.90;;;;;;4994708;28;20033;-82
2022/07/06 02:53:12;;;;;;;1.45;1.05;;;20.20;78.00;;;;;;4994646;28;20030;-82
2022/07/06 02:55:38;;;;;;;3.60;1.20;;;20.20;78.30;;;;;;5001621;28;20033;-81
2022/07/06 02:58:03;;;;;;;2.42;1.40;;;20.20;78.60;;;;;;5013979;28;20037;-82
2022/07/06 03:00:29;;;;;;;3.33;1.60;;;20.20;78.90;;;;;;4998630;28;20045;-82
2022/07/06 03:02:54;;;;;;;3.17;1.45;;;20.30;79.00;;;;;;5001374;28;20444;-82
2022/07/06 03:05:20;;;;;;;2.70;1.20;;;20.30;79.00;;;;;;5030730;28;20029;-82
2022/07/06 03:07:45;;;;;;;2.47;1.23;;;20.30;78.80;;;;;;5011085;28;20029;-82
2022/07/06 03:10:11;;;;;;;3.35;1.58;;;20.30;78.80;;;;;;5011399;28;20396;-81
2022/07/06 03:12:36;;;;;;;2.50;1.35;;;20.20;78.80;;;;;;4999514;28;20473;-83
2022/07/06 03:15:02;;;;;;;2.53;1.50;;;20.20;78.70;;;;;;5003810;28;20030;-81
2022/07/06 03:17:27;;;;;;;3.05;1.55;;;20.20;78.80;;;;;;5006832;28;20048;-81
2022/07/06 03:19:53;;;;;;;2.47;1.30;;;20.20;78.70;;;;;;5000293;28;20026;-82
2022/07/06 03:22:18;;;;;;;4.15;1.65;;;20.20;78.70;;;;;;5013213;28;20022;-82
2022/07/06 03:24:44;;;;;;;2.65;1.52;;;20.20;78.60;;;;;;5014446;28;20208;-82
2022/07/06 03:27:09;;;;;;;3.33;1.48;;;20.20;78.50;;;;;;5033909;28;20022;-83
2022/07/06 03:29:35;;;;;;;3.65;1.55;;;20.20;78.50;;;;;;5024145;28;20533;-82
2022/07/06 03:32:00;;;;;;;2.85;1.30;;;20.20;78.00;;;;;;5003719;28;20037;-82
2022/07/06 03:34:26;;;;;;;3.10;1.48;;;20.20;77.90;;;;;;4996720;28;20052;-83
2022/07/06 03:36:51;;;;;;;3.17;1.35;;;20.20;77.60;;;;;;5000277;28;20506;-82
2022/07/06 03:39:17;;;;;;;3.22;1.45;;;20.20;77.50;;;;;;5033550;28;20080;-82
2022/07/06 03:41:43;;;;;;;2.17;1.33;;;20.20;77.30;;;;;;5011510;28;20029;-83
2022/07/06 03:44:08;;;;;;;2.85;1.20;;;20.20;77.90;;;;;;5016462;28;20087;-83
2022/07/06 03:46:34;;;;;;;3.42;1.20;;;20.20;77.80;;;;;;5034962;28;20029;-83
2022/07/06 03:48:59;;;;;;;3.03;1.30;;;20.20;77.90;;;;;;5032638;28;20029;-82
2022/07/06 03:51:25;;;;;;;2.60;1.33;;;20.20;78.80;;;;;;5031593;28;20143;-82
2022/07/06 03:53:50;;;;;;;3.97;1.55;;;20.20;78.40;;;;;;5008462;28;20084;-84
2022/07/06 03:56:28;;;;;;;3.42;1.50;;;20.30;78.50;;;;;;5004539;28;20021;-84
2022/07/06 03:58:57;;;;;;;4.07;1.30;;;20.20;78.30;;;;;;5010150;28;20113;-83
2022/07/06 04:01:23;;;;;;;4.20;1.60;;;20.20;78.10;;;;;;5002004;28;20029;-83
2022/07/06 04:03:48;;;;;;;2.40;1.40;;;20.30;78.20;;;;;;5031055;28;20037;-83
2022/07/06 04:06:14;;;;;;;3.30;1.50;;;20.20;78.10;;;;;;5006470;28;20835;-82
2022/07/06 04:08:40;;;;;;;2.50;1.27;;;20.20;78.00;;;;;;5016976;28;20527;-83
2022/07/06 04:11:05;;;;;;;3.08;1.38;;;20.20;78.00;;;;;;5009839;28;20029;-82
2022/07/06 04:13:31;;;;;;;3.60;1.63;;;20.20;77.70;;;;;;5015584;28;20037;-83
2022/07/06 04:15:56;;;;;;;3.10;1.52;;;20.20;77.80;;;;;;5003706;28;20026;-83
2022/07/06 04:18:22;;;;;;;4.03;1.55;;;20.20;78.10;;;;;;5015716;28;20033;-83
2022/07/06 04:20:47;;;;;;;3.25;1.30;;;20.20;78.30;;;;;;5007693;28;20174;-83
2022/07/06 04:23:13;;;;;;;3.95;1.40;;;20.20;78.50;;;;;;5017863;28;20131;-83
2022/07/06 04:25:39;;;;;;;2.72;1.30;;;20.20;78.20;;;;;;5035116;28;20472;-83
2022/07/06 04:28:04;;;;;;;3.33;1.40;;;20.20;78.00;;;;;;5016032;28;20025;-82
2022/07/06 04:30:30;;;;;;;3.67;1.40;;;20.10;77.90;;;;;;5021618;28;20056;-82
2022/07/06 04:32:55;;;;;;;3.35;1.40;;;20.10;77.90;;;;;;5036563;28;20037;-82
2022/07/06 04:35:21;;;;;;;4.22;1.30;;;20.20;78.10;;;;;;5055011;28;20051;-83
2022/07/06 04:37:47;;;;;;;2.55;1.20;;;20.20;78.30;;;;;;5036685;28;20236;-83
2022/07/06 04:40:13;;;;;;;3.80;1.80;;;20.20;78.20;;;;;;5055424;28;20029;-82
2022/07/06 04:42:38;;;;;;;2.88;1.38;;;20.20;78.40;;;;;;5054408;28;20026;-82
2022/07/06 04:45:05;;;;;;;3.45;1.38;;;20.30;78.70;;;;;;5037041;28;20112;-82
2022/07/06 04:47:30;;;;;;;2.88;1.27;;;20.20;78.70;;;;;;5036354;28;20029;-82
2022/07/06 04:49:56;;;;;;;2.75;1.27;;;20.30;78.70;;;;;;5053850;28;20025;-82
2022/07/06 04:52:21;;;;;;;2.58;1.17;;;20.30;78.70;;;;;;5039371;28;20029;-82
2022/07/06 04:54:47;;;;;;;4.65;1.40;;;20.30;78.80;;;;;;5034693;28;20041;-82
2022/07/06 04:57:13;;;;;;;4.57;1.90;;;20.30;79.00;;;;;;5017889;28;20029;-82
2022/07/06 04:59:39;;;;;;;3.25;1.48;;;20.30;79.10;;;;;;5017851;28;20039;-82
2022/07/06 05:02:04;;;;;;;2.78;1.40;;;20.20;79.00;;;;;;5034928;28;20354;-81
2022/07/06 05:04:30;;;;;;;2.58;1.33;;;20.20;79.20;;;;;;5034495;28;20041;-82
2022/07/06 05:06:55;;;;;;;3.70;1.70;;;20.20;79.30;;;;;;5016687;28;20037;-81
2022/07/06 05:09:21;;;;;;;2.80;1.50;;;20.20;79.40;;;;;;5017597;28;20063;-82
2022/07/06 05:11:46;;;;;;;2.63;1.50;;;20.20;79.50;;;;;;5022481;28;20034;-80
2022/07/06 05:14:12;;;;;;;2.08;1.30;;;20.20;79.70;;;;;;5028102;28;20034;-79
2022/07/06 05:16:37;;;;;;;2.10;1.20;;;20.20;79.70;;;;;;4995751;28;20037;-80
2022/07/06 05:19:03;;;;;;;3.60;1.58;;;20.20;79.80;;;;;;5013807;28;20030;-79
2022/07/06 05:21:28;;;;;;;2.65;1.45;;;20.20;79.80;;;;;;5001033;28;20033;-77
2022/07/06 05:23:54;;;;;;;2.75;1.30;;;20.20;79.90;;;;;;5001074;28;20069;-78
2022/07/06 05:26:20;;;;;;;2.05;1.25;;;20.20;80.00;;;;;;4993865;28;20370;-78
2022/07/06 05:28:45;;;;;;;2.72;1.38;;;20.20;79.90;;;;;;5031981;28;20108;-79
2022/07/06 05:31:11;;;;;;;3.53;1.50;;;20.20;79.90;;;;;;5014323;28;20024;-78
2022/07/06 05:33:36;;;;;;;2.10;1.27;;;20.20;80.00;;;;;;5028381;28;20149;-77
2022/07/06 05:36:02;;;;;;;3.08;1.48;;;20.20;80.00;;;;;;5009461;28;20032;-76
2022/07/06 05:38:27;;;;;;;3.70;1.60;;;20.30;80.10;;;;;;5028142;28;20021;-83
2022/07/06 05:40:53;;;;;;;2.28;1.45;;;20.30;80.00;;;;;;5008583;28;20030;-79
2022/07/06 05:43:18;;;;;;;3.53;1.50;;;20.30;80.00;;;;;;4992730;28;20022;-78
2022/07/06 05:45:44;;;;;;;3.17;1.50;;;20.30;80.10;;;;;;4993388;28;20030;-78
2022/07/06 05:50:53;;;;;;;3.95;1.35;;;20.20;80.20;;;;;;5010813;28;20041;-77
2022/07/06 05:53:19;;;;;;;4.35;1.50;;;20.30;80.30;;;;;;5016897;28;20206;-77
2022/07/06 05:55:45;;;;;;;4.75;1.50;;;20.30;80.30;;;;;;5012318;28;20077;-78
2022/07/06 05:58:11;;;;;;;5.10;1.50;;;20.20;80.30;;;;;;5029677;28;20377;-79
2022/07/06 06:00:36;;;;;;;2.38;1.30;;;20.20;80.30;;;;;;5013759;28;20044;-78
2022/07/06 06:03:02;;;;;;;2.50;1.33;;;20.20;80.40;;;;;;5015017;28;20026;-78
2022/07/06 06:05:27;;;;;;;3.03;1.30;;;20.20;81.10;;;;;;4993060;28;20029;-78
2022/07/06 06:07:53;;;;;;;3.47;1.40;;;20.20;80.60;;;;;;4993054;28;20065;-79
2022/07/06 06:10:21;;;;;;;4.20;1.40;;;20.20;80.70;;;;;;4993249;28;20025;-78
2022/07/06 06:12:47;;;;;;;3.65;1.30;;;20.20;80.80;;;;;;4992552;28;20054;-79
2022/07/06 06:15:13;;;;;;;2.25;1.30;;;20.20;80.90;;;;;;5010898;28;20030;-78
2022/07/06 06:17:39;;;;;;;4.03;1.70;;;20.20;80.90;;;;;;4993426;28;20030;-78
2022/07/06 06:20:06;;;;;;;4.13;1.33;;;20.20;80.90;;;;;;4992823;28;20025;-78
2022/07/06 06:22:50;;;;;;;2.85;1.30;;;20.20;80.90;;;;;;4976476;28;20391;-78
2022/07/06 06:25:18;;;;;;;2.72;1.40;;;20.20;80.90;;;;;;5010255;28;20090;-78
2022/07/06 06:27:44;;;;;;;3.22;1.45;;;20.20;81.00;;;;;;5011042;28;20049;-78
2022/07/06 06:30:11;;;;;;;4.18;1.40;;;20.30;81.00;;;;;;5002486;28;20513;-78
2022/07/06 06:32:37;;;;;;;2.83;1.20;;;20.30;80.90;;;;;;5029356;28;20029;-78
2022/07/06 06:35:03;;;;;;;3.35;1.45;;;20.30;80.90;;;;;;5005040;28;20033;-78
2022/07/06 06:37:29;;;;;;;2.80;1.40;;;20.30;80.90;;;;;;5012166;28;20570;-79
2022/07/06 06:39:54;;;;;;;2.97;1.40;;;20.30;80.90;;;;;;5030107;28;20128;-78
2022/07/06 06:42:20;;;;;;;2.72;1.30;;;20.30;81.00;;;;;;5012053;28;20092;-77
2022/07/06 06:44:45;;;;;;;2.63;1.45;;;20.20;81.10;;;;;;5030152;28;20083;-78
2022/07/06 06:47:11;;;;;;;3.72;1.45;;;20.20;81.20;;;;;;5030119;28;20033;-78
2022/07/06 06:49:36;;;;;;;3.70;1.40;;;20.20;81.30;;;;;;5012206;28;20029;-78
2022/07/06 06:52:02;;;;;;;2.58;1.38;;;20.20;81.30;;;;;;5012097;28;20175;-78
2022/07/06 06:54:27;;;;;;;2.08;1.20;;;20.20;81.40;;;;;;5011557;28;20033;-79
2022/07/06 06:56:53;;;;;;;2.40;1.30;;;20.20;81.50;;;;;;5012026;28;20140;-78
2022/07/06 06:59:18;;;;;;;2.67;1.50;;;20.20;81.50;;;;;;5015129;28;20503;-78
2022/07/06 07:01:44;;;;;;;2.80;1.30;;;20.20;81.60;;;;;;5016143;28;20029;-78
2022/07/06 07:04:09;;;;;;;2.67;1.40;;;20.20;81.70;;;;;;5000216;28;20049;-79
2022/07/06 07:06:35;;;;;;;2.50;1.25;;;20.20;81.70;;;;;;5013970;28;20068;-78
2022/07/06 07:09:01;;;;;;;2.15;1.15;;;20.20;81.70;;;;;;4996548;28;20240;-78
2022/07/06 07:11:26;;;;;;;2.83;1.40;;;20.20;81.70;;;;;;5002150;28;20106;-78
2022/07/06 07:13:52;;;;;;;3.13;1.33;;;20.20;81.70;;;;;;5016548;28;20029;-79
2022/07/06 07:16:17;;;;;;;1.70;1.10;;;20.20;81.70;;;;;;5001747;28;20025;-77
2022/07/06 07:18:43;;;;;;;2.50;1.50;;;20.20;81.60;;;;;;5034435;28;20544;-81
2022/07/06 07:21:08;;;;;;;2.30;1.30;;;20.30;81.60;;;;;;5015540;28;20044;-78
2022/07/06 07:23:34;;;;;;;2.38;1.40;;;20.30;81.50;;;;;;5033130;28;20040;-78
2022/07/06 07:25:59;;;;;;;1.95;1.33;;;20.30;81.40;;;;;;5016270;28;20032;-79
2022/07/06 07:28:25;;;;;;;2.17;1.25;;;20.40;81.40;;;;;;5000806;28;20030;-80
2022/07/06 07:30:50;;;;;;;2.58;1.40;;;20.40;81.40;;;;;;5015219;28;20036;-80
2022/07/06 07:33:16;;;;;;;2.65;1.33;;;20.30;81.30;;;;;;5002122;28;20516;-79
2022/07/06 07:35:41;;;;;;;3.10;1.30;;;20.30;81.40;;;;;;5022037;28;20026;-79
2022/07/06 07:38:07;;;;;;;2.67;1.20;;;20.30;81.40;;;;;;5014483;28;20113;-78
2022/07/06 07:40:33;;;;;;;2.17;1.10;;;20.30;81.50;;;;;;5015637;28;20037;-79
2022/07/06 07:42:59;;;;;;;2.22;1.10;;;20.30;81.60;;;;;;5014930;28;20026;-78
2022/07/06 07:45:24;;;;;;;2.90;1.27;;;20.30;81.60;;;;;;5014545;28;20028;-79
2022/07/06 07:47:50;;;;;;;2.88;1.42;;;20.30;81.60;;;;;;4996087;28;20034;-78
2022/07/06 07:50:15;;;;;;;2.70;1.40;;;20.30;81.70;;;;;;4996638;28;20093;-78
2022/07/06 07:52:41;;;;;;;2.00;1.30;;;20.30;81.80;;;;;;5014894;28;20081;-78
2022/07/06 07:55:07;;;;;;;2.85;1.20;;;20.30;81.70;;;;;;4996416;28;20033;-78
2022/07/06 07:57:32;;;;;;;2.55;1.30;;;20.30;81.70;;;;;;4996370;28;20036;-78
2022/07/06 07:59:58;;;;;;;2.17;1.13;;;20.30;81.70;;;;;;5013912;28;20033;-78
2022/07/06 08:02:23;;;;;;;1.92;1.20;;;20.30;81.70;;;;;;5013914;28;20033;-78
2022/07/06 08:04:49;;;;;;;2.90;1.27;;;20.30;81.90;;;;;;5022258;28;20621;-83
2022/07/06 08:07:14;;;;;;;2.88;1.45;;;20.30;82.00;;;;;;5011314;28;20187;-79
2022/07/06 08:09:40;;;;;;;3.03;1.35;;;20.30;82.00;;;;;;5001950;28;20132;-79
2022/07/06 08:12:06;;;;;;;2.75;1.30;;;20.30;81.90;;;;;;4995583;28;20029;-79
2022/07/06 08:14:31;;;;;;;2.72;1.40;;;20.30;81.80;;;;;;4996811;28;20069;-78
2022/07/06 08:16:57;;;;;;;2.50;1.27;;;20.30;81.70;;;;;;5005593;28;20033;-78
2022/07/06 08:19:23;;;;;;;2.67;1.05;;;20.40;81.60;;;;;;5014869;28;20021;-79
2022/07/06 08:21:48;;;;;;;2.00;1.10;;;20.40;81.50;;;;;;5030645;28;20028;-78
2022/07/06 08:24:14;;;;;;;2.78;1.27;;;20.40;81.40;;;;;;5032864;28;20084;-78
2022/07/06 08:26:39;;;;;;;1.58;1.20;;;20.50;81.40;;;;;;5015423;28;20033;-79
2022/07/06 08:29:06;;;;;;;1.80;1.27;;;20.50;81.40;;;;;;5015401;28;20036;-78
2022/07/06 08:31:34;;;;;;;2.60;1.13;;;20.40;81.40;;;;;;5008031;28;20033;-78
2022/07/06 08:34:00;;;;;;;2.60;1.30;;;20.40;81.60;;;;;;4995780;28;20033;-79
2022/07/06 08:36:25;;;;;;;3.05;1.30;;;20.40;81.60;;;;;;5002724;28;20056;-79
2022/07/06 08:38:51;;;;;;;2.00;1.08;;;20.40;81.70;;;;;;5012832;28;20041;-78
2022/07/06 08:41:18;;;;;;;2.38;1.08;;;20.40;81.80;;;;;;5012452;28;20022;-78
2022/07/06 08:43:43;;;;;;;2.42;1.30;;;20.40;81.80;;;;;;5014516;28;20035;-79
2022/07/06 08:46:11;;;;;;;1.80;1.13;;;20.40;81.80;;;;;;5032885;28;20038;-79
2022/07/06 08:48:40;;;;;;;1.45;1.15;;;20.40;81.80;;;;;;5014114;28;20022;-79
2022/07/06 08:51:06;;;;;;;2.60;1.20;;;20.40;81.90;;;;;;5014483;28;20257;-79
2022/07/06 08:53:31;;;;;;;2.50;1.20;;;20.40;81.90;;;;;;5031968;28;20040;-79
2022/07/06 08:55:57;;;;;;;2.25;1.20;;;20.40;82.10;;;;;;5004892;28;20075;-79
2022/07/06 08:58:26;;;;;;;2.13;1.25;;;20.40;82.10;;;;;;5029997;28;20485;-79
2022/07/06 09:00:53;;;;;;;2.15;1.20;;;20.40;82.20;;;;;;5032702;28;20029;-78
2022/07/06 09:03:19;;;;;;;2.08;1.20;;;20.40;82.10;;;;;;5014560;28;20022;-79
2022/07/06 09:05:46;;;;;;;1.90;1.10;;;20.40;82.00;;;;;;4997521;28;20030;-79
2022/07/06 09:08:11;;;;;;;2.47;1.45;;;20.40;82.00;;;;;;4997348;28;20464;-79
2022/07/06 09:10:37;;;;;;;1.65;1.20;;;20.40;81.90;;;;;;5031953;28;20071;-79
2022/07/06 09:13:08;;;;;;;2.35;1.20;;;20.40;81.90;;;;;;5014419;28;20045;-79
2022/07/06 09:15:36;;;;;;;2.72;1.20;;;20.40;81.90;;;;;;5014803;28;20018;-79
2022/07/06 09:18:03;;;;;;;2.05;1.13;;;20.50;82.00;;;;;;5013270;28;20041;-78
2022/07/06 09:20:29;;;;;;;2.60;1.25;;;20.40;82.10;;;;;;5031449;28;20472;-79
2022/07/06 09:23:00;;;;;;;1.58;1.05;;;20.40;82.30;;;;;;5013601;28;20049;-78
2022/07/06 09:25:26;;;;;;;2.58;1.17;;;20.30;82.30;;;;;;5014202;28;20096;-79
2022/07/06 09:27:54;;;;;;;1.45;1.17;;;20.30;82.50;;;;;;5014435;28;20022;-78
2022/07/06 09:30:21;;;;;;;2.72;1.23;;;20.30;82.60;;;;;;5031672;28;20022;-79
2022/07/06 09:32:49;;;;;;;1.63;1.10;;;20.30;82.60;;;;;;5015323;28;20095;-79
2022/07/06 09:35:25;;;;;;;1.73;1.10;;;20.30;82.80;;;;;;5019388;28;20052;-79
2022/07/06 09:38:04;;;;;;;1.48;1.10;;;20.30;82.80;;;;;;5013664;28;20036;-79
2022/07/06 09:40:32;;;;;;;1.80;1.30;;;20.30;82.80;;;;;;5015267;28;20029;-79
2022/07/06 09:43:14;;;;;;;2.92;1.38;;;20.30;82.80;;;;;;5015193;28;20154;-78
2022/07/06 09:45:45;;;;;;;1.58;1.10;;;20.30;82.80;;;;;;5019477;28;20385;-78
2022/07/06 09:48:15;;;;;;;2.20;1.13;;;20.30;82.80;;;;;;5020967;28;20036;-78
2022/07/06 09:50:45;;;;;;;1.75;1.02;;;20.30;82.90;;;;;;5022707;28;20022;-78
2022/07/06 09:53:12;;;;;;;1.67;1.00;;;20.30;83.00;;;;;;5010767;28;20032;-79
2022/07/06 09:55:38;;;;;;;2.13;1.27;;;20.30;83.00;;;;;;5011490;28;20898;-78
2022/07/06 09:58:04;;;;;;;2.22;1.33;;;20.30;82.90;;;;;;5012931;28;20129;-78
2022/07/06 10:00:30;;;;;;;1.55;1.20;;;20.40;82.80;;;;;;5010028;28;20041;-79
2022/07/06 10:02:56;;;;;;;2.50;1.02;;;20.40;82.80;;;;;;5006492;28;20519;-78
2022/07/06 10:05:29;;;;;;;1.63;1.17;;;20.40;82.70;;;;;;5013230;28;20021;-77
2022/07/06 10:07:57;;;;;;;1.15;0.90;;;20.40;82.60;;;;;;5013087;28;20059;-78
2022/07/06 10:10:28;;;;;;;2.47;1.02;;;20.40;82.50;;;;;;5013186;28;20029;-78
2022/07/06 10:12:56;;;;;;;1.48;1.00;;;20.40;82.60;;;;;;5012034;28;20453;-77
2022/07/06 10:15:24;;;;;;;2.15;1.10;;;20.40;82.60;;;;;;5003475;28;20034;-78
2022/07/06 10:17:51;;;;;;;1.73;1.00;;;20.40;82.60;;;;;;4995343;28;20572;-78
2022/07/06 10:20:19;;;;;;;2.47;1.10;;;20.40;82.70;;;;;;4996725;28;20515;-77
2022/07/06 10:22:45;;;;;;;1.50;1.10;;;20.40;82.70;;;;;;5005915;28;20033;-79
2022/07/06 10:25:11;;;;;;;2.30;1.10;;;20.40;82.70;;;;;;5024474;28;20573;-78
2022/07/06 10:27:39;;;;;;;2.38;1.15;;;20.40;82.60;;;;;;5012686;28;20029;-79
2022/07/06 10:30:05;;;;;;;1.73;1.02;;;20.40;82.40;;;;;;5021181;28;20037;-79
2022/07/06 10:32:30;;;;;;;1.70;0.90;;;20.40;82.30;;;;;;5012023;28;20033;-78
2022/07/06 10:34:56;;;;;;;1.35;0.98;;;20.50;82.30;;;;;;5030285;28;20138;-78
2022/07/06 10:37:24;;;;;;;1.67;1.08;;;20.50;82.30;;;;;;5008652;28;20041;-78
2022/07/06 10:42:49;;;;;;;1.38;1.00;;;20.50;82.40;;;;;;5029572;28;20124;-78
2022/07/06 10:45:21;;;;;;;1.38;1.00;;;20.50;82.40;;;;;;4994881;28;20405;-78
2022/07/06 10:47:46;;;;;;;1.95;1.17;;;20.50;82.50;;;;;;4999800;28;20052;-77
2022/07/06 10:50:12;;;;;;;2.13;1.10;;;20.50;82.50;;;;;;5001002;28;20485;-77
2022/07/06 10:52:58;;;;;;;1.70;1.10;;;20.50;82.40;;;;;;5006905;28;20072;-76
2022/07/06 10:55:32;;;;;;;1.63;1.10;;;20.50;82.30;;;;;;5008358;28;20041;-76
2022/07/06 10:57:57;;;;;;;1.65;1.10;;;20.50;82.30;;;;;;5006797;28;20068;-76
2022/07/06 11:00:23;;;;;;;1.83;1.00;;;20.50;82.30;;;;;;5014770;28;20061;-77
2022/07/06 11:02:49;;;;;;;1.85;1.08;;;20.50;82.40;;;;;;5014775;28;20102;-77
2022/07/06 11:05:40;;;;;;;2.15;1.02;;;20.50;82.60;;;;;;5014559;28;20026;-76
2022/07/06 11:08:09;;;;;;;1.67;1.00;;;20.40;82.60;;;;;;4996981;28;20062;-77
2022/07/06 11:10:52;;;;;;;1.30;0.90;;;20.40;82.80;;;;;;4989208;28;20065;-77
2022/07/06 11:13:27;;;;;;;1.15;0.90;;;20.40;82.90;;;;;;5006649;28;20037;-77
2022/07/06 11:16:01;;;;;;;1.10;1.00;;;20.40;83.00;;;;;;5013280;28;20030;-76
2022/07/06 11:18:27;;;;;;;1.70;1.13;;;20.30;83.60;;;;;;5013873;28;20033;-76
2022/07/06 11:21:57;;;;;;;1.40;0.80;;;20.40;83.20;;;;;;4999070;28;20037;-76
2022/07/06 11:24:25;;;;;;;1.50;1.00;;;20.40;83.20;;;;;;4944348;29;20039;-76
2022/07/06 11:26:52;;;;;;;1.65;0.90;;;20.40;83.20;;;;;;5018097;28;20030;-76
2022/07/06 11:29:21;;;;;;;1.40;1.05;;;20.40;83.20;;;;;;5015132;28;20029;-77
2022/07/06 11:31:48;;;;;;;1.75;0.90;;;20.40;83.20;;;;;;4991186;28;20037;-77
2022/07/06 11:34:19;;;;;;;1.33;1.00;;;20.40;83.20;;;;;;5007221;28;20402;-76
2022/07/06 11:36:45;;;;;;;2.03;1.25;;;20.40;83.30;;;;;;4997731;28;20092;-76
2022/07/06 11:39:11;;;;;;;1.83;1.20;;;20.30;83.30;;;;;;4996988;28;20030;-76
2022/07/06 11:41:37;;;;;;;1.08;0.90;;;20.40;83.30;;;;;;5014568;28;20079;-75
2022/07/06 11:44:03;;;;;;;1.90;1.10;;;20.40;83.20;;;;;;5023603;28;20488;-76
2022/07/06 11:46:34;;;;;;;1.50;0.90;;;20.40;83.10;;;;;;5004586;28;20240;-76
2022/07/06 11:49:09;;;;;;;1.80;0.98;;;20.40;83.00;;;;;;5026910;28;20022;-76
2022/07/06 11:51:37;;;;;;;1.60;0.98;;;20.50;82.90;;;;;;5011101;28;20021;-77
2022/07/06 11:54:09;;;;;;;1.27;0.90;;;20.50;82.80;;;;;;5011199;28;20310;-77
2022/07/06 11:56:35;;;;;;;2.10;1.20;;;20.50;82.70;;;;;;5011816;28;20045;-77
2022/07/06 11:59:01;;;;;;;1.30;1.10;;;20.50;82.80;;;;;;5003413;28;20034;-77
2022/07/06 12:01:28;;;;;;;1.42;1.10;;;20.40;82.80;;;;;;5022483;28;20018;-77
2022/07/06 12:03:58;;;;;;;1.83;1.10;;;20.50;82.80;;;;;;5011748;28;20036;-76
2022/07/06 12:06:25;;;;;;;1.50;0.90;;;20.50;82.90;;;;;;5011680;28;20075;-76
2022/07/06 12:08:52;;;;;;;1.52;1.00;;;20.50;83.00;;;;;;5006401;28;20120;-77
2022/07/06 12:11:24;;;;;;;1.40;0.98;;;20.50;83.00;;;;;;5012857;28;20092;-76
2022/07/06 12:13:50;;;;;;;;;;;20.50;83.00;;;;;;5004832;28;20799;-76
2022/07/06 12:16:16;;;;;;;1.00;0.90;;;20.50;82.90;;;;;;4992295;28;19924;-76
2022/07/06 12:18:43;;;;;;;1.30;1.00;;;20.40;83.00;;;;;;5018951;28;20030;-76
2022/07/06 12:21:12;;;;;;;1.92;1.00;;;20.50;83.00;;;;;;5018872;28;20065;-77
2022/07/06 12:23:43;;;;;;;0.95;0.75;;;20.40;83.00;;;;;;5003436;28;20030;-77
2022/07/06 12:26:10;;;;;;;1.58;1.10;;;20.40;83.00;;;;;;4995802;28;20113;-77
2022/07/06 12:28:36;;;;;;;1.55;1.00;;;20.40;83.20;;;;;;4996111;28;20040;-76
2022/07/06 12:31:02;;;;;;;1.77;1.00;;;20.40;83.30;;;;;;5009746;28;20108;-77
2022/07/06 12:33:28;;;;;;;1.67;1.05;;;20.40;83.20;;;;;;5011569;28;20489;-78
2022/07/06 12:35:54;;;;;;;1.45;1.00;;;20.50;83.20;;;;;;5013241;28;20071;-78
2022/07/06 12:38:27;;;;;;;1.52;0.90;;;20.50;83.60;;;;;;5010942;28;20456;-77
2022/07/06 12:40:53;;;;;;;1.63;1.05;;;20.50;83.00;;;;;;5017807;28;20105;-77
2022/07/06 12:43:38;;;;;;;1.95;1.00;;;20.50;83.00;;;;;;5008680;28;20018;-77
2022/07/06 12:46:26;;;;;;;1.55;1.10;;;20.50;83.00;;;;;;4999600;28;20072;-77
2022/07/06 12:48:55;;;;;;;0.90;0.80;;;20.50;83.10;;;;;;5005568;28;20018;-77
2022/07/06 12:51:21;;;;;;;1.08;0.82;;;20.40;83.10;;;;;;5010731;28;20037;-76
2022/07/06 12:53:46;;;;;;;1.75;0.80;;;20.40;83.20;;;;;;5011900;28;20030;-77
2022/07/06 12:56:13;;;;;;;1.92;1.00;;;20.40;83.20;;;;;;5003132;28;20037;-77